Time;durP1;ratioP1;P1;durP2;ratioP2;P2;SDS_P1;SDS_P2;PMS_P1;PMS_P2;Temp;Humidity;BMP_temperature;BMP_pressure;BME280_temperature;BME280_humidity;BME280_pressure;Samples;Min_cycle;Max_cycle;Signal;HPM_P1;HPM_P2
2023/05/29 00:00:02;;;;;;;;;;;15.50;58.50;;;;;;5053515;28;19917;-68
2023/05/29 00:02:28;;;;;;;;;;;15.50;58.30;;;;;;5053896;28;19935;-68
2023/05/29 00:04:53;;;;;;;;;;;15.50;58.20;;;;;;5054162;28;19913;-68
2023/05/29 00:07:19;;;;;;;;;;;15.40;58.00;;;;;;5054433;28;19917;-68
2023/05/29 00:09:44;;;;;;;;;;;15.40;58.00;;;;;;5054230;28;19913;-68
2023/05/29 00:12:11;;;;;;;;;;;15.30;58.10;;;;;;5062600;28;19935;-68
2023/05/29 00:14:37;;;;;;;;;;;15.30;58.00;;;;;;5067545;28;19915;-68
2023/05/29 00:17:02;;;;;;;;;;;15.30;57.90;;;;;;5053852;28;19912;-68
2023/05/29 00:19:28;;;;;;;;;;;15.20;57.90;;;;;;5053665;28;19909;-68
2023/05/29 00:21:53;;;;;;;;;;;15.20;58.00;;;;;;5053578;28;19916;-68
2023/05/29 00:24:20;;;;;;;;;;;15.20;58.10;;;;;;5053859;28;20008;-68
2023/05/29 00:26:45;;;;;;;;;;;15.20;58.10;;;;;;5054048;28;19916;-68
2023/05/29 00:29:11;;;;;;;;;;;15.10;57.90;;;;;;5053656;28;20011;-68
2023/05/29 00:31:36;;;;;;;;;;;15.10;57.80;;;;;;5053968;28;19960;-68
2023/05/29 00:34:02;;;;;;;;;;;15.00;57.90;;;;;;5053778;28;19913;-68
2023/05/29 00:36:29;;;;;;;;;;;15.00;57.90;;;;;;5063604;28;19952;-68
2023/05/29 00:38:55;;;;;;;;;;;15.00;57.80;;;;;;5073902;28;19913;-68
2023/05/29 00:41:20;;;;;;;;;;;15.00;57.70;;;;;;5073827;28;19924;-68
2023/05/29 00:43:46;;;;;;;;;;;14.90;57.70;;;;;;5073481;28;19919;-68
2023/05/29 00:46:12;;;;;;;;;;;14.90;57.70;;;;;;5073409;28;20011;-68
2023/05/29 00:48:38;;;;;;;;;;;14.80;57.80;;;;;;5065789;28;20340;-68
2023/05/29 00:51:04;;;;;;;;;;;14.80;57.90;;;;;;5053633;28;20008;-67
2023/05/29 00:53:30;;;;;;;;;;;14.80;57.90;;;;;;5053278;28;20047;-68
2023/05/29 00:55:55;;;;;;;;;;;14.70;57.70;;;;;;5053686;28;19991;-68
2023/05/29 00:58:21;;;;;;;;;;;14.70;57.70;;;;;;5053241;28;20368;-68
2023/05/29 01:00:46;;;;;;;;;;;14.70;57.90;;;;;;5053762;28;19921;-65
2023/05/29 01:03:14;;;;;;;;;;;14.70;58.00;;;;;;5053440;28;19956;-64
2023/05/29 01:05:40;;;;;;;;;;;14.60;58.00;;;;;;5053212;28;19964;-64
2023/05/29 01:08:06;;;;;;;;;;;14.60;58.10;;;;;;5053230;28;19952;-64
2023/05/29 01:10:31;;;;;;;;;;;14.50;58.10;;;;;;5053264;28;19921;-64
2023/05/29 01:13:00;;;;;;;;;;;14.50;58.30;;;;;;5053187;28;19962;-64
2023/05/29 01:15:38;;;;;;;;;;;14.50;58.00;;;;;;5053201;28;19917;-64
2023/05/29 01:18:22;;;;;;;;;;;14.50;58.30;;;;;;5052792;28;19916;-65
2023/05/29 01:20:50;;;;;;;;;;;14.40;58.30;;;;;;5052658;28;20000;-64
2023/05/29 01:23:35;;;;;;;;;;;14.30;58.30;;;;;;5052791;28;19940;-64
2023/05/29 01:26:01;;;;;;;;;;;14.30;58.40;;;;;;5052433;28;19924;-67
2023/05/29 01:28:30;;;;;;;;;;;14.30;58.50;;;;;;5052853;28;19909;-64
2023/05/29 01:30:56;;;;;;;;;;;14.20;58.50;;;;;;5053190;28;19917;-64
2023/05/29 01:33:22;;;;;;;;;;;14.20;58.40;;;;;;5052542;28;19913;-65
2023/05/29 01:35:47;;;;;;;;;;;14.10;58.40;;;;;;5056716;28;19917;-68
2023/05/29 01:38:13;;;;;;;;;;;14.10;58.40;;;;;;5054682;28;19969;-68
2023/05/29 01:40:38;;;;;;;;;;;14.00;58.50;;;;;;5070872;28;19916;-68
2023/05/29 01:43:04;;;;;;;;;;;14.00;58.40;;;;;;5072155;28;19918;-68
2023/05/29 01:45:30;;;;;;;;;;;14.00;58.40;;;;;;5072215;28;19921;-67
2023/05/29 01:47:56;;;;;;;;;;;13.90;58.50;;;;;;5069721;28;20379;-67
2023/05/29 01:50:23;;;;;;;;;;;13.90;58.20;;;;;;5052279;28;19943;-67
2023/05/29 01:52:48;;;;;;;;;;;13.80;58.30;;;;;;5051801;28;19913;-67
2023/05/29 01:55:14;;;;;;;;;;;13.80;58.20;;;;;;5052097;28;20359;-67
2023/05/29 01:57:40;;;;;;;;;;;13.80;58.30;;;;;;5051942;28;19994;-68
2023/05/29 02:00:08;;;;;;;;;;;13.70;58.50;;;;;;5052137;28;20380;-68
2023/05/29 02:02:37;;;;;;;;;;;13.70;58.30;;;;;;5052130;28;20328;-68
2023/05/29 02:05:04;;;;;;;;;;;13.60;58.20;;;;;;5051759;28;19921;-67
2023/05/29 02:07:30;;;;;;;;;;;13.50;58.30;;;;;;5051074;28;20272;-67
2023/05/29 02:09:55;;;;;;;;;;;13.50;58.20;;;;;;5051792;28;19921;-68
2023/05/29 02:12:21;;;;;;;;;;;13.50;58.20;;;;;;5034061;28;19912;-68
2023/05/29 02:14:46;;;;;;;;;;;13.40;58.30;;;;;;5051836;28;19917;-67
2023/05/29 02:17:12;;;;;;;;;;;13.30;58.30;;;;;;5051911;28;19959;-68
2023/05/29 02:19:37;;;;;;;;;;;13.30;58.20;;;;;;5051908;28;19917;-68
2023/05/29 02:22:03;;;;;;;;;;;13.30;58.40;;;;;;5051973;28;19913;-68
2023/05/29 02:24:28;;;;;;;;;;;13.30;58.50;;;;;;5051621;28;19916;-68
2023/05/29 02:26:54;;;;;;;;;;;13.30;58.60;;;;;;5051713;28;20357;-67
2023/05/29 02:29:20;;;;;;;;;;;13.20;58.80;;;;;;5051687;28;19909;-67
2023/05/29 02:31:45;;;;;;;;;;;13.20;59.10;;;;;;5052123;28;20012;-68
2023/05/29 02:34:11;;;;;;;;;;;13.20;59.30;;;;;;5051656;28;20398;-68
2023/05/29 02:36:38;;;;;;;;;;;13.20;59.80;;;;;;5063588;28;20413;-68
2023/05/29 02:39:04;;;;;;;;;;;13.10;59.90;;;;;;5075911;28;20287;-68
2023/05/29 02:41:29;;;;;;;;;;;13.20;59.90;;;;;;5075632;28;20364;-64
2023/05/29 02:43:54;;;;;;;;;;;13.20;60.10;;;;;;5075817;28;19909;-64
2023/05/29 02:46:21;;;;;;;;;;;13.20;60.20;;;;;;5075834;28;19983;-65
2023/05/29 02:48:47;;;;;;;;;;;13.20;60.20;;;;;;5066383;28;20440;-65
2023/05/29 02:51:12;;;;;;;;;;;13.20;60.30;;;;;;5056165;28;19928;-65
2023/05/29 02:53:38;;;;;;;;;;;13.20;60.30;;;;;;5055650;28;19995;-66
2023/05/29 02:56:03;;;;;;;;;;;13.20;60.30;;;;;;5055557;28;19916;-64
2023/05/29 02:58:29;;;;;;;;;;;13.20;60.30;;;;;;5055387;28;19987;-64
2023/05/29 03:00:54;;;;;;;;;;;13.10;60.30;;;;;;5055639;28;20219;-64
2023/05/29 03:03:20;;;;;;;;;;;13.10;60.10;;;;;;5055220;28;20352;-65
2023/05/29 03:05:46;;;;;;;;;;;13.10;60.20;;;;;;5055868;28;20009;-64
2023/05/29 03:08:12;;;;;;;;;;;13.10;60.30;;;;;;5055758;28;19959;-65
2023/05/29 03:10:38;;;;;;;;;;;13.10;60.30;;;;;;5055505;28;19921;-65
2023/05/29 03:13:03;;;;;;;;;;;13.10;60.40;;;;;;5055217;28;19966;-65
2023/05/29 03:15:29;;;;;;;;;;;13.10;60.30;;;;;;5055428;28;20012;-65
2023/05/29 03:17:54;;;;;;;;;;;13.00;60.40;;;;;;5055105;28;19909;-65
2023/05/29 03:20:20;;;;;;;;;;;13.10;60.50;;;;;;5055235;28;19924;-67
2023/05/29 03:22:45;;;;;;;;;;;13.10;60.40;;;;;;5055051;28;19909;-64
2023/05/29 03:25:10;;;;;;;;;;;13.00;60.50;;;;;;5054779;28;19925;-66
2023/05/29 03:27:36;;;;;;;;;;;13.00;60.70;;;;;;5054914;28;19916;-64
2023/05/29 03:30:02;;;;;;;;;;;13.10;60.70;;;;;;5054964;28;20423;-64
2023/05/29 03:32:28;;;;;;;;;;;13.10;60.70;;;;;;5054648;28;19915;-64
2023/05/29 03:34:53;;;;;;;;;;;13.20;60.80;;;;;;5054862;28;19916;-65
2023/05/29 03:37:19;;;;;;;;;;;13.30;60.80;;;;;;5071642;28;19908;-64
2023/05/29 03:39:44;;;;;;;;;;;13.30;60.90;;;;;;5074832;28;19923;-64
2023/05/29 03:42:10;;;;;;;;;;;13.50;60.90;;;;;;5074668;28;20354;-64
2023/05/29 03:44:35;;;;;;;;;;;13.60;60.80;;;;;;5074526;28;20002;-64
2023/05/29 03:47:01;;;;;;;;;;;13.80;60.80;;;;;;5074349;28;20027;-64
2023/05/29 03:49:26;;;;;;;;;;;13.90;60.60;;;;;;5059288;28;19962;-64
2023/05/29 03:51:51;;;;;;;;;;;14.10;60.40;;;;;;5054694;28;20003;-64
2023/05/29 03:54:17;;;;;;;;;;;14.30;60.10;;;;;;5054404;28;19909;-64
2023/05/29 03:56:42;;;;;;;;;;;14.30;59.80;;;;;;5054952;28;19924;-65
2023/05/29 03:59:08;;;;;;;;;;;14.50;59.40;;;;;;5054564;28;19909;-65
2023/05/29 04:01:33;;;;;;;;;;;14.70;59.10;;;;;;5054542;28;19976;-64
2023/05/29 04:03:59;;;;;;;;;;;14.80;58.90;;;;;;5054424;28;19909;-65
2023/05/29 04:06:25;;;;;;;;;;;15.00;58.40;;;;;;5054758;28;19950;-64
2023/05/29 04:08:50;;;;;;;;;;;15.20;58.10;;;;;;5054166;28;19909;-68
2023/05/29 04:11:15;;;;;;;;;;;15.30;57.20;;;;;;5054150;28;19924;-68
2023/05/29 04:13:41;;;;;;;;;;;15.30;56.70;;;;;;5054129;28;20284;-68
2023/05/29 04:16:07;;;;;;;;;;;15.30;56.30;;;;;;5054346;28;20383;-68
2023/05/29 04:18:32;;;;;;;;;;;15.30;56.00;;;;;;5036202;28;19909;-68
2023/05/29 04:20:57;;;;;;;;;;;15.30;55.70;;;;;;5054514;28;19928;-68
2023/05/29 04:23:23;;;;;;;;;;;15.20;55.60;;;;;;5053829;28;19909;-68
2023/05/29 04:25:50;;;;;;;;;;;15.30;55.50;;;;;;5054016;28;19967;-68
2023/05/29 04:28:16;;;;;;;;;;;15.20;55.40;;;;;;5053757;28;19999;-68
2023/05/29 04:30:42;;;;;;;;;;;15.30;55.40;;;;;;5043184;28;19921;-68
2023/05/29 04:33:09;;;;;;;;;;;15.30;55.20;;;;;;5046836;28;19957;-68
2023/05/29 04:35:35;;;;;;;;;;;15.30;55.10;;;;;;5056281;28;19917;-68
2023/05/29 04:38:01;;;;;;;;;;;15.40;55.00;;;;;;5073960;28;19920;-68
2023/05/29 04:40:26;;;;;;;;;;;15.40;54.90;;;;;;5060381;28;19920;-69
2023/05/29 04:42:52;;;;;;;;;;;15.50;54.50;;;;;;5053575;28;19917;-69
2023/05/29 04:45:20;;;;;;;;;;;15.50;54.20;;;;;;5053582;28;20352;-68
2023/05/29 04:47:46;;;;;;;;;;;15.60;54.10;;;;;;5053439;28;19998;-68
2023/05/29 04:50:14;;;;;;;;;;;15.70;53.90;;;;;;5053488;28;19924;-68
2023/05/29 04:52:40;;;;;;;;;;;15.70;53.90;;;;;;5053321;28;20025;-68
2023/05/29 04:55:05;;;;;;;;;;;15.90;53.60;;;;;;5053824;28;19925;-68
2023/05/29 04:57:31;;;;;;;;;;;16.00;53.40;;;;;;5052961;28;19912;-69
2023/05/29 04:59:56;;;;;;;;;;;16.20;53.10;;;;;;5052112;28;19963;-68
2023/05/29 05:02:22;;;;;;;;;;;16.50;53.00;;;;;;5052951;28;19909;-68
2023/05/29 05:04:47;;;;;;;;;;;16.90;52.10;;;;;;5053408;28;19917;-68
2023/05/29 05:07:15;;;;;;;;;;;17.30;51.20;;;;;;5053061;28;20261;-68
2023/05/29 05:09:41;;;;;;;;;;;17.70;50.40;;;;;;5053300;28;19915;-68
2023/05/29 05:12:07;;;;;;;;;;;18.00;49.20;;;;;;5052988;28;20003;-69
2023/05/29 05:14:32;;;;;;;;;;;18.40;48.20;;;;;;5053024;28;19916;-69
2023/05/29 05:16:57;;;;;;;;;;;18.70;47.20;;;;;;5052805;28;19999;-69
2023/05/29 05:19:23;;;;;;;;;;;19.10;46.90;;;;;;5052697;28;20360;-69
2023/05/29 05:21:48;;;;;;;;;;;19.50;46.30;;;;;;5052756;28;19954;-69
2023/05/29 05:24:14;;;;;;;;;;;19.90;45.00;;;;;;5052902;28;19970;-69
2023/05/29 05:26:39;;;;;;;;;;;20.20;43.70;;;;;;5053032;28;19929;-69
2023/05/29 05:29:05;;;;;;;;;;;20.30;42.70;;;;;;5039756;28;20285;-69
2023/05/29 05:31:30;;;;;;;;;;;20.50;42.20;;;;;;5032937;28;19917;-69
2023/05/29 05:33:56;;;;;;;;;;;20.60;41.30;;;;;;5031240;28;19916;-65
2023/05/29 05:36:21;;;;;;;;;;;20.70;41.10;;;;;;5048673;28;19920;-65
2023/05/29 05:38:46;;;;;;;;;;;20.80;40.80;;;;;;5071136;28;19909;-65
2023/05/29 05:41:12;;;;;;;;;;;21.10;40.70;;;;;;5072639;28;19927;-65
2023/05/29 05:43:37;;;;;;;;;;;21.30;40.20;;;;;;5063556;28;19999;-65
2023/05/29 05:46:03;;;;;;;;;;;21.70;40.30;;;;;;5052719;28;20354;-66
2023/05/29 05:48:30;;;;;;;;;;;22.10;39.40;;;;;;5051705;28;21291;-66
2023/05/29 05:50:55;;;;;;;;;;;22.30;38.70;;;;;;5052677;28;19927;-66
2023/05/29 05:53:21;;;;;;;;;;;22.50;38.50;;;;;;5052018;28;19921;-66
2023/05/29 05:55:46;;;;;;;;;;;22.80;38.00;;;;;;5052336;28;20431;-65
2023/05/29 05:58:12;;;;;;;;;;;23.00;36.90;;;;;;5052085;28;20359;-65
2023/05/29 06:00:39;;;;;;;;;;;23.10;36.20;;;;;;5052298;28;19913;-66
2023/05/29 06:03:04;;;;;;;;;;;23.30;36.60;;;;;;5052247;28;19913;-66
2023/05/29 06:05:30;;;;;;;;;;;23.60;35.90;;;;;;5052271;28;19924;-66
2023/05/29 06:07:55;;;;;;;;;;;23.80;35.40;;;;;;5051974;28;19913;-66
2023/05/29 06:10:21;;;;;;;;;;;24.10;34.70;;;;;;5052343;28;20300;-66
2023/05/29 06:12:46;;;;;;;;;;;24.30;34.10;;;;;;5051885;28;20007;-65
2023/05/29 06:15:12;;;;;;;;;;;24.50;34.00;;;;;;5051706;28;19983;-66
2023/05/29 06:17:37;;;;;;;;;;;24.60;33.40;;;;;;5051766;28;19920;-66
2023/05/29 06:20:06;;;;;;;;;;;24.80;32.90;;;;;;5052401;28;19912;-66
2023/05/29 06:22:32;;;;;;;;;;;24.80;32.30;;;;;;5051776;28;20441;-66
2023/05/29 06:24:57;;;;;;;;;;;24.90;32.40;;;;;;5052323;28;19913;-66
2023/05/29 06:27:25;;;;;;;;;;;25.00;32.30;;;;;;5051685;28;19917;-66
2023/05/29 06:29:51;;;;;;;;;;;25.10;31.80;;;;;;5052086;28;19939;-66
2023/05/29 06:32:16;;;;;;;;;;;25.20;31.60;;;;;;5051890;28;19913;-66
2023/05/29 06:34:42;;;;;;;;;;;25.30;31.90;;;;;;5032787;28;19920;-67
2023/05/29 06:37:08;;;;;;;;;;;25.50;31.70;;;;;;5062257;28;20265;-69
2023/05/29 06:39:34;;;;;;;;;;;25.70;30.80;;;;;;5071755;28;20604;-69
2023/05/29 06:42:01;;;;;;;;;;;25.70;30.80;;;;;;5071879;28;19925;-70
2023/05/29 06:44:26;;;;;;;;;;;25.80;30.80;;;;;;5072145;28;20356;-70
2023/05/29 06:46:52;;;;;;;;;;;26.00;30.90;;;;;;5071780;28;19927;-70
2023/05/29 06:49:18;;;;;;;;;;;26.20;30.30;;;;;;5058114;28;19909;-69
2023/05/29 06:51:44;;;;;;;;;;;26.40;30.00;;;;;;5051027;28;19913;-69
2023/05/29 06:54:10;;;;;;;;;;;26.50;29.90;;;;;;5049692;28;19917;-69
2023/05/29 06:56:35;;;;;;;;;;;26.70;29.30;;;;;;5051435;28;20376;-70
2023/05/29 06:59:00;;;;;;;;;;;26.70;28.70;;;;;;5051580;28;19917;-70
2023/05/29 07:01:26;;;;;;;;;;;26.70;28.60;;;;;;5051745;28;19913;-70
2023/05/29 07:03:52;;;;;;;;;;;26.70;29.00;;;;;;5051057;28;19943;-70
2023/05/29 07:06:17;;;;;;;;;;;26.80;28.90;;;;;;5051206;28;19916;-70
2023/05/29 07:08:43;;;;;;;;;;;27.10;29.10;;;;;;5051307;28;19935;-70
2023/05/29 07:11:09;;;;;;;;;;;27.30;28.90;;;;;;5051968;28;19919;-70
2023/05/29 07:13:35;;;;;;;;;;;27.60;28.60;;;;;;5033608;28;19913;-70
2023/05/29 07:16:01;;;;;;;;;;;27.70;27.60;;;;;;5032276;28;20368;-70
2023/05/29 07:18:26;;;;;;;;;;;27.60;27.60;;;;;;5013519;28;19917;-69
2023/05/29 07:20:53;;;;;;;;;;;27.60;27.40;;;;;;5045400;28;19920;-69
2023/05/29 07:23:19;;;;;;;;;;;27.60;27.40;;;;;;5052695;28;19917;-69
2023/05/29 07:25:44;;;;;;;;;;;27.70;27.30;;;;;;5055280;28;19978;-69
2023/05/29 07:28:10;;;;;;;;;;;27.80;27.20;;;;;;5054894;28;19962;-69
2023/05/29 07:30:35;;;;;;;;;;;28.10;27.50;;;;;;5054455;28;19917;-71
2023/05/29 07:33:00;;;;;;;;;;;28.40;26.40;;;;;;5054585;28;19921;-70
2023/05/29 07:35:26;;;;;;;;;;;28.40;26.00;;;;;;5054843;28;19913;-69
2023/05/29 07:37:52;;;;;;;;;;;28.40;25.70;;;;;;5054696;28;19959;-69
2023/05/29 07:40:17;;;;;;;;;;;28.40;25.90;;;;;;5055012;28;20012;-69
2023/05/29 07:42:43;;;;;;;;;;;28.30;25.80;;;;;;5053744;28;19924;-69
2023/05/29 07:45:08;;;;;;;;;;;28.40;26.00;;;;;;5052498;28;19913;-68
2023/05/29 07:47:34;;;;;;;;;;;28.50;26.20;;;;;;5045944;28;20388;-67
2023/05/29 07:49:59;;;;;;;;;;;28.60;25.90;;;;;;5044698;28;19924;-69
2023/05/29 07:52:25;;;;;;;;;;;28.70;25.70;;;;;;5045818;28;20395;-70
2023/05/29 07:54:50;;;;;;;;;;;28.80;25.40;;;;;;5035585;28;19917;-70
2023/05/29 07:57:16;;;;;;;;;;;28.80;25.60;;;;;;5044816;28;20287;-69
2023/05/29 07:59:41;;;;;;;;;;;28.90;25.40;;;;;;5048917;28;19924;-69
2023/05/29 08:02:08;;;;;;;;;;;29.10;25.60;;;;;;5047378;28;19917;-69
2023/05/29 08:04:33;;;;;;;;;;;29.30;25.60;;;;;;5044147;28;19914;-70
2023/05/29 08:07:00;;;;;;;;;;;29.70;25.40;;;;;;5036235;28;20502;-71
2023/05/29 08:09:26;;;;;;;;;;;30.00;24.70;;;;;;5050587;28;19932;-69
2023/05/29 08:11:51;;;;;;;;;;;30.00;24.40;;;;;;5051520;28;19925;-70
2023/05/29 08:14:17;;;;;;;;;;;30.00;24.50;;;;;;5043458;28;20002;-69
2023/05/29 08:16:42;;;;;;;;;;;30.10;24.40;;;;;;5049869;28;20273;-70
2023/05/29 08:19:08;;;;;;;;;;;30.20;24.60;;;;;;5049689;28;19921;-68
2023/05/29 08:21:33;;;;;;;;;;;30.40;24.00;;;;;;5043371;28;19921;-67
2023/05/29 08:23:59;;;;;;;;;;;30.40;24.00;;;;;;5049505;28;20304;-68
2023/05/29 08:26:24;;;;;;;;;;;30.30;24.10;;;;;;5033990;28;19917;-69
2023/05/29 08:28:50;;;;;;;;;;;30.40;23.90;;;;;;5047092;28;19917;-68
2023/05/29 08:31:16;;;;;;;;;;;30.40;24.10;;;;;;5036145;28;19917;-68
2023/05/29 08:33:41;;;;;;;;;;;30.40;23.80;;;;;;5037967;28;19933;-69
2023/05/29 08:36:07;;;;;;;;;;;30.30;23.80;;;;;;5044510;28;19931;-69
2023/05/29 08:38:32;;;;;;;;;;;30.30;24.00;;;;;;5048352;28;19917;-68
2023/05/29 08:40:58;;;;;;;;;;;30.40;23.70;;;;;;5037154;28;19939;-69
2023/05/29 08:43:25;;;;;;;;;;;30.30;23.70;;;;;;5051040;28;19917;-69
2023/05/29 08:45:53;;;;;;;;;;;30.10;23.40;;;;;;5051132;28;19916;-70
2023/05/29 08:48:20;;;;;;;;;;;29.80;23.10;;;;;;5048309;28;20288;-68
2023/05/29 08:50:46;;;;;;;;;;;29.50;23.30;;;;;;5048691;28;19960;-68
2023/05/29 08:53:18;;;;;;;;;;;29.20;23.80;;;;;;5051507;28;19917;-68
2023/05/29 08:55:46;;;;;;;;;;;29.20;24.40;;;;;;5050340;28;20424;-68
2023/05/29 08:58:13;;;;;;;;;;;29.20;24.20;;;;;;5048171;28;19917;-68
2023/05/29 09:00:40;;;;;;;;;;;29.20;24.60;;;;;;5050790;28;19974;-68
2023/05/29 09:03:06;;;;;;;;;;;29.20;24.50;;;;;;5051404;28;19912;-69
2023/05/29 09:05:32;;;;;;;;;;;29.30;24.70;;;;;;5032194;28;19917;-68
2023/05/29 09:07:58;;;;;;;;;;;29.40;24.30;;;;;;5048052;28;19965;-69
2023/05/29 09:10:25;;;;;;;;;;;29.30;24.30;;;;;;5051352;28;20022;-68
2023/05/29 09:12:51;;;;;;;;;;;29.10;24.90;;;;;;5050556;28;20000;-69
2023/05/29 09:15:18;;;;;;;;;;;29.30;25.10;;;;;;5049726;28;20082;-68
2023/05/29 09:17:44;;;;;;;;;;;29.40;25.00;;;;;;5047104;28;19965;-68
2023/05/29 09:20:19;;;;;;;;;;;29.50;24.60;;;;;;5044649;28;20000;-68
2023/05/29 09:23:02;;;;;;;;;;;29.50;24.60;;;;;;5032585;28;19913;-69
2023/05/29 09:25:32;;;;;;;;;;;29.50;24.90;;;;;;5036042;28;19920;-69
2023/05/29 09:28:02;;;;;;;;;;;29.50;24.50;;;;;;5038926;28;19928;-68
2023/05/29 09:30:31;;;;;;;;;;;29.40;24.50;;;;;;5040305;28;19917;-68
2023/05/29 09:32:58;;;;;;;;;;;29.50;24.70;;;;;;5042332;28;19963;-68
2023/05/29 09:35:24;;;;;;;;;;;29.80;24.90;;;;;;5053848;28;19912;-69
2023/05/29 09:37:50;;;;;;;;;;;29.80;24.20;;;;;;5036581;28;19913;-68
2023/05/29 09:40:15;;;;;;;;;;;30.00;24.40;;;;;;5040568;28;19913;-69
2023/05/29 09:42:41;;;;;;;;;;;30.20;24.40;;;;;;5033683;28;20070;-69
2023/05/29 09:45:06;;;;;;;;;;;30.40;24.50;;;;;;5041665;28;19980;-69
2023/05/29 09:47:35;;;;;;;;;;;30.70;24.00;;;;;;5034789;28;20383;-68
2023/05/29 09:50:01;;;;;;;;;;;30.70;23.20;;;;;;5044138;28;19913;-68
2023/05/29 09:52:30;;;;;;;;;;;30.60;23.60;;;;;;5042724;28;20292;-68
2023/05/29 09:54:56;;;;;;;;;;;30.70;23.50;;;;;;5042237;28;19913;-69
2023/05/29 09:57:23;;;;;;;;;;;30.70;23.60;;;;;;5033813;28;20364;-69
2023/05/29 09:59:51;;;;;;;;;;;30.70;23.00;;;;;;5043506;28;20431;-69
2023/05/29 10:02:17;;;;;;;;;;;30.60;22.80;;;;;;5031580;28;19913;-69
2023/05/29 10:04:44;;;;;;;;;;;30.60;23.10;;;;;;5044675;28;20407;-69
2023/05/29 10:07:17;;;;;;;;;;;30.60;23.30;;;;;;5038546;28;19925;-71
2023/05/29 10:09:45;;;;;;;;;;;30.60;23.10;;;;;;5045385;28;19920;-70
2023/05/29 10:12:15;;;;;;;;;;;30.60;22.90;;;;;;5036901;28;20304;-70
2023/05/29 10:14:42;;;;;;;;;;;30.60;23.20;;;;;;5046810;28;19952;-70
2023/05/29 10:17:08;;;;;;;;;;;30.70;23.20;;;;;;5043845;28;19928;-69
2023/05/29 10:19:36;;;;;;;;;;;30.80;23.00;;;;;;5049177;28;19951;-69
2023/05/29 10:22:02;;;;;;;;;;;30.70;22.90;;;;;;5048633;28;19920;-70
2023/05/29 10:24:28;;;;;;;;;;;30.70;23.20;;;;;;5045998;28;20420;-69
2023/05/29 10:26:54;;;;;;;;;;;30.80;23.20;;;;;;5031876;28;20016;-69
2023/05/29 10:29:39;;;;;;;;;;;31.00;23.30;;;;;;5046816;28;19909;-69
2023/05/29 10:32:23;;;;;;;;;;;31.10;22.90;;;;;;5041335;28;19916;-69
2023/05/29 10:34:56;;;;;;;;;;;31.20;22.70;;;;;;5045345;28;19919;-69
2023/05/29 10:37:28;;;;;;;;;;;31.20;22.80;;;;;;5044687;28;19987;-69
2023/05/29 10:39:53;;;;;;;;;;;31.20;23.20;;;;;;5042077;28;20365;-69
2023/05/29 10:42:37;;;;;;;;;;;31.30;23.00;;;;;;5030789;28;19921;-69
2023/05/29 10:45:03;;;;;;;;;;;31.30;22.80;;;;;;5038349;28;20357;-70
2023/05/29 10:47:29;;;;;;;;;;;31.10;22.70;;;;;;5034026;28;19943;-70
2023/05/29 10:49:59;;;;;;;;;;;31.00;22.90;;;;;;5043111;28;19920;-69
2023/05/29 10:52:24;;;;;;;;;;;31.00;23.10;;;;;;5034232;28;19913;-68
2023/05/29 10:54:51;;;;;;;;;;;31.10;23.10;;;;;;5037366;28;19923;-68
2023/05/29 10:57:17;;;;;;;;;;;31.20;22.80;;;;;;5032403;28;20434;-68
2023/05/29 10:59:44;;;;;;;;;;;31.30;23.10;;;;;;5052616;28;19921;-65
2023/05/29 11:02:10;;;;;;;;;;;31.40;22.80;;;;;;5045663;28;19916;-65
2023/05/29 11:04:36;;;;;;;;;;;31.50;22.80;;;;;;5050036;28;19966;-65
2023/05/29 11:07:05;;;;;;;;;;;31.50;22.30;;;;;;5051336;28;19967;-65
2023/05/29 11:09:34;;;;;;;;;;;31.20;22.60;;;;;;5052989;28;19960;-64
2023/05/29 11:12:12;;;;;;;;;;;31.10;23.10;;;;;;5068389;28;20368;-65
2023/05/29 11:14:47;;;;;;;;;;;31.20;23.10;;;;;;5067731;28;20407;-64
2023/05/29 11:17:28;;;;;;;;;;;31.30;23.00;;;;;;5050354;28;19929;-65
2023/05/29 11:19:55;;;;;;;;;;;31.30;22.90;;;;;;5054206;28;19983;-65
2023/05/29 11:22:23;;;;;;;;;;;31.50;23.10;;;;;;5055119;28;19960;-65
2023/05/29 11:24:49;;;;;;;;;;;31.60;23.00;;;;;;5052897;28;19951;-64
2023/05/29 11:27:15;;;;;;;;;;;31.50;22.80;;;;;;5051355;28;19921;-65
2023/05/29 11:29:40;;;;;;;;;;;31.50;22.70;;;;;;5053666;28;20364;-65
2023/05/29 11:32:09;;;;;;;;;;;31.40;22.70;;;;;;5055038;28;19917;-64
2023/05/29 11:34:38;;;;;;;;;;;31.50;23.00;;;;;;5053689;28;19932;-64
2023/05/29 11:37:04;;;;;;;;;;;31.70;23.00;;;;;;5063567;28;19932;-66
2023/05/29 11:39:30;;;;;;;;;;;31.80;22.90;;;;;;5051797;28;19909;-64
2023/05/29 11:41:56;;;;;;;;;;;31.50;22.40;;;;;;5054881;28;19939;-65
2023/05/29 11:44:25;;;;;;;;;;;31.30;22.70;;;;;;5052825;28;20007;-65
2023/05/29 11:47:04;;;;;;;;;;;31.40;23.20;;;;;;5052198;28;19978;-65
2023/05/29 11:49:31;;;;;;;;;;;31.40;23.20;;;;;;5053515;28;19990;-65
2023/05/29 11:52:17;;;;;;;;;;;31.30;23.00;;;;;;5054121;28;19928;-65
2023/05/29 11:54:47;;;;;;;;;;;31.00;22.90;;;;;;5053849;28;19916;-65
2023/05/29 11:57:19;;;;;;;;;;;30.70;23.10;;;;;;5050302;28;19932;-66
2023/05/29 11:59:45;;;;;;;;;;;30.60;23.50;;;;;;5053553;28;19913;-65
2023/05/29 12:02:11;;;;;;;;;;;30.60;23.80;;;;;;5052775;28;20296;-65
2023/05/29 12:04:36;;;;;;;;;;;30.70;23.90;;;;;;5054009;28;19932;-65
2023/05/29 12:07:16;;;;;;;;;;;30.90;23.90;;;;;;5051899;28;20361;-65
2023/05/29 12:09:41;;;;;;;;;;;30.90;23.70;;;;;;5049468;28;21776;-65
2023/05/29 12:12:06;;;;;;;;;;;30.80;23.70;;;;;;5053267;28;20069;-65
2023/05/29 12:14:33;;;;;;;;;;;30.70;23.80;;;;;;5052925;28;19955;-66
2023/05/29 12:16:58;;;;;;;;;;;30.80;24.00;;;;;;5052815;28;20023;-65
2023/05/29 12:19:24;;;;;;;;;;;30.70;24.10;;;;;;5051292;28;20007;-65
2023/05/29 12:21:49;;;;;;;;;;;30.70;24.20;;;;;;5053806;28;19919;-65
2023/05/29 12:24:17;;;;;;;;;;;30.60;24.30;;;;;;5053003;28;20047;-66
2023/05/29 12:26:43;;;;;;;;;;;30.60;24.20;;;;;;5053380;28;20405;-65
2023/05/29 12:29:08;;;;;;;;;;;30.60;24.20;;;;;;5050143;28;20352;-66
2023/05/29 12:31:34;;;;;;;;;;;30.80;24.40;;;;;;5053811;28;19970;-65
2023/05/29 12:34:00;;;;;;;;;;;30.80;24.30;;;;;;5052530;28;19962;-68
2023/05/29 12:36:26;;;;;;;;;;;30.70;24.50;;;;;;5062703;28;19912;-68
2023/05/29 12:38:52;;;;;;;;;;;30.70;24.60;;;;;;5050518;28;20364;-68
2023/05/29 12:41:22;;;;;;;;;;;30.70;24.90;;;;;;5053068;28;20311;-68
2023/05/29 12:43:47;;;;;;;;;;;30.70;24.90;;;;;;5051490;28;19917;-69
2023/05/29 12:46:13;;;;;;;;;;;30.70;25.00;;;;;;5053270;28;20384;-69
2023/05/29 12:48:38;;;;;;;;;;;30.70;24.90;;;;;;5049252;28;19924;-69
2023/05/29 12:51:07;;;;;;;;;;;30.80;24.70;;;;;;5052793;28;19913;-69
2023/05/29 12:53:33;;;;;;;;;;;30.70;24.80;;;;;;5052030;28;20408;-68
2023/05/29 12:55:58;;;;;;;;;;;30.60;24.80;;;;;;5053182;28;19967;-69
2023/05/29 12:58:24;;;;;;;;;;;30.40;24.90;;;;;;5048848;28;19962;-68
2023/05/29 13:00:55;;;;;;;;;;;30.30;25.00;;;;;;5052710;28;19920;-68
2023/05/29 13:03:23;;;;;;;;;;;30.40;25.00;;;;;;5051276;28;20028;-69
2023/05/29 13:05:49;;;;;;;;;;;30.30;25.00;;;;;;5052978;28;20283;-68
2023/05/29 13:08:14;;;;;;;;;;;30.20;24.90;;;;;;5048875;28;19967;-68
2023/05/29 13:10:40;;;;;;;;;;;30.00;25.20;;;;;;5052933;28;19999;-69
2023/05/29 13:13:05;;;;;;;;;;;30.00;25.40;;;;;;5051899;28;20391;-69
2023/05/29 13:15:32;;;;;;;;;;;30.00;25.40;;;;;;5052471;28;19954;-69
2023/05/29 13:17:58;;;;;;;;;;;30.10;25.20;;;;;;5048405;28;20335;-69
2023/05/29 13:20:23;;;;;;;;;;;30.00;25.00;;;;;;5051653;28;19919;-68
2023/05/29 13:22:49;;;;;;;;;;;29.80;25.30;;;;;;5051893;28;19916;-68
2023/05/29 13:25:15;;;;;;;;;;;29.70;25.40;;;;;;5051204;28;19913;-68
2023/05/29 13:27:42;;;;;;;;;;;29.60;25.90;;;;;;5048712;28;19951;-68
2023/05/29 13:30:08;;;;;;;;;;;29.60;25.90;;;;;;5052060;28;19999;-69
2023/05/29 13:32:34;;;;;;;;;;;29.50;25.60;;;;;;5051371;28;20372;-68
2023/05/29 13:34:59;;;;;;;;;;;29.40;25.90;;;;;;5050577;28;19913;-69
2023/05/29 13:37:25;;;;;;;;;;;29.30;25.30;;;;;;5053675;28;20401;-68
2023/05/29 13:39:50;;;;;;;;;;;29.00;25.50;;;;;;5051181;28;19963;-68
2023/05/29 13:42:16;;;;;;;;;;;28.90;26.20;;;;;;5050598;28;19928;-69
2023/05/29 13:44:42;;;;;;;;;;;28.80;25.70;;;;;;5050808;28;20403;-69
2023/05/29 13:47:08;;;;;;;;;;;28.60;25.90;;;;;;5049643;28;20089;-69
2023/05/29 13:49:33;;;;;;;;;;;28.50;25.80;;;;;;5049387;28;19974;-69
2023/05/29 13:51:59;;;;;;;;;;;28.40;26.20;;;;;;5051531;28;19917;-69
2023/05/29 13:54:24;;;;;;;;;;;28.40;25.90;;;;;;5049141;28;19913;-68
2023/05/29 13:56:50;;;;;;;;;;;28.40;25.40;;;;;;5050472;28;19917;-69
2023/05/29 13:59:15;;;;;;;;;;;28.30;25.10;;;;;;5049051;28;19917;-69
2023/05/29 14:01:41;;;;;;;;;;;28.20;24.80;;;;;;5051539;28;20373;-70
2023/05/29 14:04:06;;;;;;;;;;;28.20;24.90;;;;;;5062455;28;20264;-69
2023/05/29 14:06:32;;;;;;;;;;;28.20;24.10;;;;;;5051178;28;20272;-69
2023/05/29 14:08:58;;;;;;;;;;;28.10;23.50;;;;;;5048380;28;19932;-69
2023/05/29 14:11:23;;;;;;;;;;;28.00;23.30;;;;;;5051263;28;19917;-68